sensor_id;sensor_type;location;lat;lon;timestamp;pressure;altitude;pressure_sealevel;temperature;humidity
12360;BME280;6244;51.460;7.090;2023-10-19T00:03:45;98473.81;;;10.97;100.00
12360;BME280;6244;51.460;7.090;2023-10-19T00:08:44;98467.34;;;11.01;100.00
12360;BME280;6244;51.460;7.090;2023-10-19T00:13:42;98468.75;;;11.05;100.00
12360;BME280;6244;51.460;7.090;2023-10-19T00:18:39;98468.06;;;11.12;100.00
12360;BME280;6244;51.460;7.090;2023-10-19T00:23:39;98466.69;;;11.28;100.00
12360;BME280;6244;51.460;7.090;2023-10-19T00:28:36;98456.63;;;11.33;100.00
12360;BME280;6244;51.460;7.090;2023-10-19T00:33:34;98453.59;;;11.57;100.00
12360;BME280;6244;51.460;7.090;2023-10-19T00:38:34;98459.25;;;11.62;100.00
12360;BME280;6244;51.460;7.090;2023-10-19T00:43:44;98444.19;;;11.73;100.00
12360;BME280;6244;51.460;7.090;2023-10-19T00:48:45;98446.66;;;11.75;100.00
12360;BME280;6244;51.460;7.090;2023-10-19T00:53:42;98458.00;;;11.75;100.00
12360;BME280;6244;51.460;7.090;2023-10-19T00:58:38;98432.69;;;11.74;100.00
12360;BME280;6244;51.460;7.090;2023-10-19T01:03:38;98446.28;;;11.80;100.00
12360;BME280;6244;51.460;7.090;2023-10-19T01:08:36;98442.56;;;11.82;100.00
12360;BME280;6244;51.460;7.090;2023-10-19T01:13:37;98437.44;;;11.81;100.00
12360;BME280;6244;51.460;7.090;2023-10-19T01:18:41;98433.00;;;11.91;100.00
12360;BME280;6244;51.460;7.090;2023-10-19T01:23:39;98436.47;;;11.91;100.00
12360;BME280;6244;51.460;7.090;2023-10-19T01:28:37;98439.78;;;11.84;100.00
12360;BME280;6244;51.460;7.090;2023-10-19T01:33:39;98431.31;;;11.90;100.00
12360;BME280;6244;51.460;7.090;2023-10-19T01:38:37;98431.16;;;12.01;100.00
12360;BME280;6244;51.460;7.090;2023-10-19T01:43:35;98429.78;;;12.07;100.00
12360;BME280;6244;51.460;7.090;2023-10-19T01:48:35;98429.50;;;12.10;100.00
12360;BME280;6244;51.460;7.090;2023-10-19T01:53:33;98444.56;;;12.17;100.00
12360;BME280;6244;51.460;7.090;2023-10-19T01:58:31;98428.88;;;12.25;100.00
12360;BME280;6244;51.460;7.090;2023-10-19T02:03:32;98427.78;;;12.28;100.00
12360;BME280;6244;51.460;7.090;2023-10-19T02:08:30;98428.72;;;12.37;100.00
12360;BME280;6244;51.460;7.090;2023-10-19T02:13:27;98427.47;;;12.41;100.00
12360;BME280;6244;51.460;7.090;2023-10-19T02:18:23;98415.84;;;12.43;100.00
12360;BME280;6244;51.460;7.090;2023-10-19T02:23:21;98416.00;;;12.32;100.00
12360;BME280;6244;51.460;7.090;2023-10-19T02:28:17;98412.53;;;12.41;100.00
12360;BME280;6244;51.460;7.090;2023-10-19T02:33:21;98409.75;;;12.43;100.00
12360;BME280;6244;51.460;7.090;2023-10-19T02:38:17;98413.63;;;12.39;100.00
12360;BME280;6244;51.460;7.090;2023-10-19T02:43:15;98404.41;;;12.52;100.00
12360;BME280;6244;51.460;7.090;2023-10-19T02:48:13;98399.41;;;12.59;100.00
12360;BME280;6244;51.460;7.090;2023-10-19T02:53:09;98389.41;;;12.62;100.00
12360;BME280;6244;51.460;7.090;2023-10-19T02:58:08;98396.63;;;12.60;100.00
12360;BME280;6244;51.460;7.090;2023-10-19T03:03:07;98387.63;;;12.63;100.00
12360;BME280;6244;51.460;7.090;2023-10-19T03:08:04;98396.34;;;12.63;100.00
12360;BME280;6244;51.460;7.090;2023-10-19T03:13:01;98386.56;;;12.56;100.00
12360;BME280;6244;51.460;7.090;2023-10-19T03:17:59;98393.97;;;12.70;100.00
12360;BME280;6244;51.460;7.090;2023-10-19T03:22:57;98390.31;;;12.81;100.00
12360;BME280;6244;51.460;7.090;2023-10-19T03:27:56;98389.84;;;12.85;100.00
12360;BME280;6244;51.460;7.090;2023-10-19T03:32:53;98387.88;;;12.87;100.00
12360;BME280;6244;51.460;7.090;2023-10-19T03:37:50;98385.66;;;12.92;100.00
12360;BME280;6244;51.460;7.090;2023-10-19T03:42:48;98379.16;;;12.87;100.00
12360;BME280;6244;51.460;7.090;2023-10-19T03:47:47;98376.66;;;12.68;100.00
12360;BME280;6244;51.460;7.090;2023-10-19T03:52:45;98358.41;;;12.84;100.00
12360;BME280;6244;51.460;7.090;2023-10-19T03:57:42;98366.00;;;12.87;100.00
12360;BME280;6244;51.460;7.090;2023-10-19T04:02:43;98369.53;;;12.78;100.00
12360;BME280;6244;51.460;7.090;2023-10-19T04:07:39;98364.13;;;12.79;100.00
12360;BME280;6244;51.460;7.090;2023-10-19T04:12:38;98367.50;;;12.89;100.00
12360;BME280;6244;51.460;7.090;2023-10-19T04:17:37;98356.84;;;12.91;100.00
12360;BME280;6244;51.460;7.090;2023-10-19T04:22:36;98354.22;;;12.91;100.00
12360;BME280;6244;51.460;7.090;2023-10-19T04:27:34;98351.44;;;12.92;100.00
12360;BME280;6244;51.460;7.090;2023-10-19T04:32:31;98339.63;;;12.97;100.00
12360;BME280;6244;51.460;7.090;2023-10-19T04:37:28;98345.00;;;12.77;100.00
12360;BME280;6244;51.460;7.090;2023-10-19T04:42:26;98348.81;;;12.92;100.00
12360;BME280;6244;51.460;7.090;2023-10-19T04:47:22;98342.94;;;12.81;100.00
12360;BME280;6244;51.460;7.090;2023-10-19T04:52:19;98342.53;;;12.76;100.00
12360;BME280;6244;51.460;7.090;2023-10-19T04:57:15;98341.94;;;13.00;100.00
12360;BME280;6244;51.460;7.090;2023-10-19T05:02:13;98339.16;;;12.83;100.00
12360;BME280;6244;51.460;7.090;2023-10-19T05:07:10;98346.53;;;12.80;100.00
12360;BME280;6244;51.460;7.090;2023-10-19T05:12:12;98338.34;;;12.83;100.00
12360;BME280;6244;51.460;7.090;2023-10-19T05:17:10;98358.41;;;13.02;100.00
12360;BME280;6244;51.460;7.090;2023-10-19T05:22:09;98358.66;;;12.90;100.00
12360;BME280;6244;51.460;7.090;2023-10-19T05:27:05;98361.72;;;12.86;100.00
12360;BME280;6244;51.460;7.090;2023-10-19T05:32:05;98352.31;;;12.83;100.00
12360;BME280;6244;51.460;7.090;2023-10-19T05:37:04;98350.56;;;12.74;100.00
12360;BME280;6244;51.460;7.090;2023-10-19T05:42:02;98349.44;;;12.77;100.00
12360;BME280;6244;51.460;7.090;2023-10-19T05:46:59;98353.97;;;12.67;100.00
12360;BME280;6244;51.460;7.090;2023-10-19T05:51:56;98352.66;;;12.53;100.00
12360;BME280;6244;51.460;7.090;2023-10-19T05:56:52;98358.41;;;12.66;100.00
12360;BME280;6244;51.460;7.090;2023-10-19T06:01:50;98368.94;;;12.84;100.00
12360;BME280;6244;51.460;7.090;2023-10-19T06:06:47;98365.13;;;12.96;100.00
12360;BME280;6244;51.460;7.090;2023-10-19T06:11:43;98375.06;;;13.02;100.00
12360;BME280;6244;51.460;7.090;2023-10-19T06:16:40;98381.00;;;13.04;100.00
12360;BME280;6244;51.460;7.090;2023-10-19T06:21:38;98381.53;;;13.08;100.00
12360;BME280;6244;51.460;7.090;2023-10-19T06:26:35;98391.06;;;13.09;100.00
12360;BME280;6244;51.460;7.090;2023-10-19T06:31:32;98399.34;;;13.14;100.00
12360;BME280;6244;51.460;7.090;2023-10-19T06:36:28;98394.63;;;13.17;100.00
12360;BME280;6244;51.460;7.090;2023-10-19T06:41:26;98397.53;;;13.14;100.00
12360;BME280;6244;51.460;7.090;2023-10-19T06:46:23;98400.44;;;13.21;100.00
12360;BME280;6244;51.460;7.090;2023-10-19T06:51:19;98400.28;;;13.22;100.00
12360;BME280;6244;51.460;7.090;2023-10-19T06:56:17;98408.63;;;13.18;100.00
12360;BME280;6244;51.460;7.090;2023-10-19T07:01:15;98415.13;;;13.23;100.00
12360;BME280;6244;51.460;7.090;2023-10-19T07:06:13;98417.78;;;13.14;100.00
12360;BME280;6244;51.460;7.090;2023-10-19T07:11:09;98424.09;;;13.31;100.00
12360;BME280;6244;51.460;7.090;2023-10-19T07:16:06;98407.81;;;13.35;100.00
12360;BME280;6244;51.460;7.090;2023-10-19T07:21:08;98411.53;;;13.42;100.00
12360;BME280;6244;51.460;7.090;2023-10-19T07:26:06;98414.66;;;13.46;100.00
12360;BME280;6244;51.460;7.090;2023-10-19T07:31:02;98419.13;;;13.45;100.00
12360;BME280;6244;51.460;7.090;2023-10-19T07:35:59;98426.25;;;13.35;100.00
12360;BME280;6244;51.460;7.090;2023-10-19T07:41:03;98428.50;;;13.48;100.00
12360;BME280;6244;51.460;7.090;2023-10-19T07:46:01;98429.19;;;13.50;100.00
12360;BME280;6244;51.460;7.090;2023-10-19T07:50:57;98424.00;;;13.58;100.00
12360;BME280;6244;51.460;7.090;2023-10-19T07:55:54;98421.84;;;13.54;100.00
12360;BME280;6244;51.460;7.090;2023-10-19T08:00:53;98428.13;;;13.61;100.00
12360;BME280;6244;51.460;7.090;2023-10-19T08:05:52;98422.31;;;13.75;100.00
12360;BME280;6244;51.460;7.090;2023-10-19T08:10:49;98421.22;;;13.77;100.00
12360;BME280;6244;51.460;7.090;2023-10-19T08:15:45;98424.19;;;13.82;100.00
12360;BME280;6244;51.460;7.090;2023-10-19T08:20:43;98420.09;;;13.88;100.00
12360;BME280;6244;51.460;7.090;2023-10-19T08:26:03;98422.81;;;13.96;100.00
12360;BME280;6244;51.460;7.090;2023-10-19T08:31:19;98420.59;;;14.09;100.00
12360;BME280;6244;51.460;7.090;2023-10-19T08:36:20;98429.72;;;14.15;100.00
12360;BME280;6244;51.460;7.090;2023-10-19T08:41:16;98414.97;;;14.38;99.49
12360;BME280;6244;51.460;7.090;2023-10-19T08:46:13;98418.06;;;14.52;98.56
12360;BME280;6244;51.460;7.090;2023-10-19T08:51:10;98421.56;;;14.60;97.89
12360;BME280;6244;51.460;7.090;2023-10-19T08:56:09;98413.22;;;14.81;96.97
12360;BME280;6244;51.460;7.090;2023-10-19T09:01:07;98400.44;;;15.03;95.97
12360;BME280;6244;51.460;7.090;2023-10-19T09:06:05;98408.88;;;15.22;95.31
12360;BME280;6244;51.460;7.090;2023-10-19T09:11:05;98397.34;;;15.32;92.31
12360;BME280;6244;51.460;7.090;2023-10-19T09:16:06;98399.81;;;15.33;91.72
12360;BME280;6244;51.460;7.090;2023-10-19T09:21:03;98402.44;;;15.33;91.15
12360;BME280;6244;51.460;7.090;2023-10-19T09:26:02;98392.06;;;15.40;91.07
12360;BME280;6244;51.460;7.090;2023-10-19T09:31:00;98400.00;;;15.56;90.12
12360;BME280;6244;51.460;7.090;2023-10-19T09:36:00;98391.78;;;15.75;89.69
12360;BME280;6244;51.460;7.090;2023-10-19T09:40:57;98382.50;;;15.88;88.86
12360;BME280;6244;51.460;7.090;2023-10-19T09:45:56;98375.34;;;16.04;89.22
12360;BME280;6244;51.460;7.090;2023-10-19T09:50:56;98382.16;;;16.54;88.06
12360;BME280;6244;51.460;7.090;2023-10-19T09:55:58;98378.25;;;16.81;86.19
12360;BME280;6244;51.460;7.090;2023-10-19T10:00:55;98381.19;;;16.86;83.11
12360;BME280;6244;51.460;7.090;2023-10-19T10:05:52;98383.75;;;16.71;83.21
12360;BME280;6244;51.460;7.090;2023-10-19T10:10:50;98380.34;;;16.47;82.85
12360;BME280;6244;51.460;7.090;2023-10-19T10:15:48;98379.34;;;16.48;84.35
12360;BME280;6244;51.460;7.090;2023-10-19T10:20:47;98369.06;;;17.00;81.44
12360;BME280;6244;51.460;7.090;2023-10-19T10:25:45;98366.75;;;18.33;77.48
12360;BME280;6244;51.460;7.090;2023-10-19T10:31:10;98358.53;;;19.72;68.02
12360;BME280;6244;51.460;7.090;2023-10-19T10:36:08;98360.41;;;20.95;62.48
12360;BME280;6244;51.460;7.090;2023-10-19T10:41:07;98365.50;;;21.78;61.38
12360;BME280;6244;51.460;7.090;2023-10-19T10:46:06;98347.22;;;22.14;58.89
12360;BME280;6244;51.460;7.090;2023-10-19T10:51:14;98336.66;;;23.85;52.90
12360;BME280;6244;51.460;7.090;2023-10-19T10:56:11;98351.50;;;22.80;53.33
12360;BME280;6244;51.460;7.090;2023-10-19T11:01:07;98350.19;;;23.09;53.97
12360;BME280;6244;51.460;7.090;2023-10-19T11:06:07;98338.59;;;21.86;55.57
12360;BME280;6244;51.460;7.090;2023-10-19T11:11:06;98336.69;;;20.52;59.26
12360;BME280;6244;51.460;7.090;2023-10-19T11:16:06;98340.44;;;19.95;62.34
12360;BME280;6244;51.460;7.090;2023-10-19T11:21:08;98351.75;;;19.98;63.58
12360;BME280;6244;51.460;7.090;2023-10-19T11:26:06;98353.56;;;19.26;64.47
12360;BME280;6244;51.460;7.090;2023-10-19T11:31:26;98332.75;;;18.72;65.84
12360;BME280;6244;51.460;7.090;2023-10-19T11:36:24;98333.31;;;18.53;68.01
12360;BME280;6244;51.460;7.090;2023-10-19T11:41:21;98311.13;;;18.75;71.54
12360;BME280;6244;51.460;7.090;2023-10-19T11:46:18;98298.34;;;21.21;63.15
12360;BME280;6244;51.460;7.090;2023-10-19T11:51:18;98295.59;;;20.75;59.58
12360;BME280;6244;51.460;7.090;2023-10-19T11:56:16;98287.16;;;20.23;62.18
12360;BME280;6244;51.460;7.090;2023-10-19T12:01:12;98281.19;;;20.63;60.18
12360;BME280;6244;51.460;7.090;2023-10-19T12:06:10;98280.72;;;20.05;62.74
12360;BME280;6244;51.460;7.090;2023-10-19T12:11:07;98268.38;;;19.41;63.98
12360;BME280;6244;51.460;7.090;2023-10-19T12:16:11;98262.44;;;19.11;65.02
12360;BME280;6244;51.460;7.090;2023-10-19T12:21:10;98273.78;;;18.84;66.62
12360;BME280;6244;51.460;7.090;2023-10-19T12:26:07;98278.25;;;18.62;68.40
12360;BME280;6244;51.460;7.090;2023-10-19T12:31:07;98271.63;;;18.36;68.29
12360;BME280;6244;51.460;7.090;2023-10-19T12:36:06;98279.50;;;18.30;68.77
12360;BME280;6244;51.460;7.090;2023-10-19T12:41:20;98284.47;;;18.18;69.96
12360;BME280;6244;51.460;7.090;2023-10-19T12:46:17;98301.47;;;18.09;70.40
12360;BME280;6244;51.460;7.090;2023-10-19T12:51:16;98291.69;;;17.95;71.81
12360;BME280;6244;51.460;7.090;2023-10-19T12:56:18;98274.75;;;17.81;71.30
12360;BME280;6244;51.460;7.090;2023-10-19T13:01:15;98271.47;;;17.79;72.11
12360;BME280;6244;51.460;7.090;2023-10-19T13:06:13;98256.66;;;17.70;72.67
12360;BME280;6244;51.460;7.090;2023-10-19T13:11:11;98255.78;;;17.54;74.00
12360;BME280;6244;51.460;7.090;2023-10-19T13:16:09;98260.34;;;17.60;73.31
12360;BME280;6244;51.460;7.090;2023-10-19T13:21:06;98257.25;;;17.57;73.92
12360;BME280;6244;51.460;7.090;2023-10-19T13:26:04;98263.09;;;17.52;74.54
12360;BME280;6244;51.460;7.090;2023-10-19T13:31:14;98265.63;;;17.46;74.77
12360;BME280;6244;51.460;7.090;2023-10-19T13:36:11;98259.88;;;17.42;75.30
12360;BME280;6244;51.460;7.090;2023-10-19T13:41:08;98263.22;;;17.36;75.77
12360;BME280;6244;51.460;7.090;2023-10-19T13:46:06;98267.03;;;17.19;77.03
12360;BME280;6244;51.460;7.090;2023-10-19T13:51:04;98275.22;;;16.86;79.90
12360;BME280;6244;51.460;7.090;2023-10-19T13:56:08;98263.97;;;16.30;84.46
12360;BME280;6244;51.460;7.090;2023-10-19T14:01:06;98264.13;;;15.90;87.81
12360;BME280;6244;51.460;7.090;2023-10-19T14:06:05;98249.66;;;15.69;89.98
12360;BME280;6244;51.460;7.090;2023-10-19T14:11:02;98235.09;;;15.57;92.25
12360;BME280;6244;51.460;7.090;2023-10-19T14:15:59;98231.16;;;15.69;93.25
12360;BME280;6244;51.460;7.090;2023-10-19T14:20:55;98232.44;;;15.81;93.58
12360;BME280;6244;51.460;7.090;2023-10-19T14:25:53;98222.38;;;15.77;93.18
12360;BME280;6244;51.460;7.090;2023-10-19T14:30:49;98208.69;;;15.65;95.94
12360;BME280;6244;51.460;7.090;2023-10-19T14:35:46;98202.88;;;15.70;95.64
12360;BME280;6244;51.460;7.090;2023-10-19T14:40:43;98200.75;;;15.65;95.66
12360;BME280;6244;51.460;7.090;2023-10-19T14:45:44;98192.66;;;15.67;95.03
12360;BME280;6244;51.460;7.090;2023-10-19T14:50:42;98189.19;;;15.58;94.92
12360;BME280;6244;51.460;7.090;2023-10-19T14:55:38;98174.31;;;15.49;96.21
12360;BME280;6244;51.460;7.090;2023-10-19T15:00:35;98162.63;;;15.51;96.12
12360;BME280;6244;51.460;7.090;2023-10-19T15:05:38;98151.06;;;15.44;96.42
12360;BME280;6244;51.460;7.090;2023-10-19T15:10:41;98133.09;;;15.32;98.13
12360;BME280;6244;51.460;7.090;2023-10-19T15:15:38;98126.47;;;15.36;98.76
12360;BME280;6244;51.460;7.090;2023-10-19T15:20:34;98141.00;;;15.40;97.97
12360;BME280;6244;51.460;7.090;2023-10-19T15:25:32;98137.22;;;15.34;98.14
12360;BME280;6244;51.460;7.090;2023-10-19T15:30:29;98125.81;;;15.34;97.78
12360;BME280;6244;51.460;7.090;2023-10-19T15:35:26;98127.00;;;15.31;97.77
12360;BME280;6244;51.460;7.090;2023-10-19T15:40:23;98112.63;;;15.34;98.15
12360;BME280;6244;51.460;7.090;2023-10-19T15:45:22;98102.41;;;15.22;98.73
12360;BME280;6244;51.460;7.090;2023-10-19T15:50:18;98108.34;;;15.24;99.29
12360;BME280;6244;51.460;7.090;2023-10-19T15:55:15;98089.84;;;15.24;99.48
12360;BME280;6244;51.460;7.090;2023-10-19T16:00:12;98095.31;;;15.23;99.38
12360;BME280;6244;51.460;7.090;2023-10-19T16:05:11;98083.44;;;15.27;99.91
12360;BME280;6244;51.460;7.090;2023-10-19T16:10:09;98082.25;;;15.30;98.82
12360;BME280;6244;51.460;7.090;2023-10-19T16:15:08;98072.19;;;15.25;99.23
12360;BME280;6244;51.460;7.090;2023-10-19T16:20:06;98064.59;;;15.30;99.27
12360;BME280;6244;51.460;7.090;2023-10-19T16:25:04;98059.50;;;15.20;98.96
12360;BME280;6244;51.460;7.090;2023-10-19T16:30:02;98065.66;;;15.05;99.75
12360;BME280;6244;51.460;7.090;2023-10-19T16:34:59;98067.47;;;15.04;99.83
12360;BME280;6244;51.460;7.090;2023-10-19T16:39:56;98060.41;;;14.96;100.00
12360;BME280;6244;51.460;7.090;2023-10-19T16:44:55;98069.66;;;14.84;100.00
12360;BME280;6244;51.460;7.090;2023-10-19T16:49:51;98057.63;;;14.82;100.00
12360;BME280;6244;51.460;7.090;2023-10-19T16:54:48;98065.72;;;14.80;100.00
12360;BME280;6244;51.460;7.090;2023-10-19T16:59:45;98071.81;;;14.81;100.00
12360;BME280;6244;51.460;7.090;2023-10-19T17:04:43;98070.66;;;14.75;100.00
12360;BME280;6244;51.460;7.090;2023-10-19T17:09:40;98069.38;;;14.63;100.00
12360;BME280;6244;51.460;7.090;2023-10-19T17:14:37;98072.84;;;14.55;100.00
12360;BME280;6244;51.460;7.090;2023-10-19T17:19:35;98065.94;;;14.54;100.00
12360;BME280;6244;51.460;7.090;2023-10-19T17:24:32;98064.94;;;14.47;100.00
12360;BME280;6244;51.460;7.090;2023-10-19T17:29:29;98066.56;;;14.40;100.00
12360;BME280;6244;51.460;7.090;2023-10-19T17:34:25;98070.84;;;14.25;100.00
12360;BME280;6244;51.460;7.090;2023-10-19T17:39:22;98064.94;;;14.15;100.00
12360;BME280;6244;51.460;7.090;2023-10-19T17:44:20;98058.97;;;14.13;100.00
12360;BME280;6244;51.460;7.090;2023-10-19T17:49:17;98057.81;;;14.07;100.00
12360;BME280;6244;51.460;7.090;2023-10-19T17:54:14;98045.28;;;13.93;100.00
12360;BME280;6244;51.460;7.090;2023-10-19T17:59:11;98044.44;;;13.84;100.00
12360;BME280;6244;51.460;7.090;2023-10-19T18:04:09;98041.50;;;13.79;100.00
12360;BME280;6244;51.460;7.090;2023-10-19T18:09:05;98037.50;;;13.67;100.00
12360;BME280;6244;51.460;7.090;2023-10-19T18:14:03;98029.75;;;13.57;100.00
12360;BME280;6244;51.460;7.090;2023-10-19T18:19:01;98055.44;;;13.55;100.00
12360;BME280;6244;51.460;7.090;2023-10-19T18:23:59;98060.34;;;13.42;100.00
12360;BME280;6244;51.460;7.090;2023-10-19T18:28:57;98048.69;;;13.52;100.00
12360;BME280;6244;51.460;7.090;2023-10-19T18:33:54;98031.78;;;13.79;100.00
12360;BME280;6244;51.460;7.090;2023-10-19T18:38:51;98018.91;;;13.85;100.00
12360;BME280;6244;51.460;7.090;2023-10-19T18:43:48;98017.25;;;13.84;100.00
12360;BME280;6244;51.460;7.090;2023-10-19T18:48:46;98022.72;;;13.82;100.00
12360;BME280;6244;51.460;7.090;2023-10-19T18:53:43;98012.34;;;13.80;100.00
12360;BME280;6244;51.460;7.090;2023-10-19T18:58:39;98017.59;;;13.80;100.00
12360;BME280;6244;51.460;7.090;2023-10-19T19:03:37;98010.16;;;13.76;100.00
12360;BME280;6244;51.460;7.090;2023-10-19T19:08:34;98002.44;;;13.82;100.00
12360;BME280;6244;51.460;7.090;2023-10-19T19:13:31;97988.44;;;13.82;100.00
12360;BME280;6244;51.460;7.090;2023-10-19T19:18:27;97981.69;;;13.79;100.00
12360;BME280;6244;51.460;7.090;2023-10-19T19:23:26;97982.97;;;13.75;100.00
12360;BME280;6244;51.460;7.090;2023-10-19T19:28:23;97983.31;;;13.72;100.00
12360;BME280;6244;51.460;7.090;2023-10-19T19:33:20;97987.13;;;13.70;100.00
12360;BME280;6244;51.460;7.090;2023-10-19T19:38:16;97981.84;;;13.70;100.00
12360;BME280;6244;51.460;7.090;2023-10-19T19:43:14;97982.47;;;13.64;100.00
12360;BME280;6244;51.460;7.090;2023-10-19T19:48:11;97967.69;;;13.71;100.00
12360;BME280;6244;51.460;7.090;2023-10-19T19:53:08;97975.75;;;13.69;100.00
12360;BME280;6244;51.460;7.090;2023-10-19T19:58:05;97984.63;;;13.76;100.00
12360;BME280;6244;51.460;7.090;2023-10-19T20:03:03;97990.56;;;13.70;100.00
12360;BME280;6244;51.460;7.090;2023-10-19T20:08:05;97978.38;;;13.69;100.00
12360;BME280;6244;51.460;7.090;2023-10-19T20:13:03;97975.91;;;13.76;100.00
12360;BME280;6244;51.460;7.090;2023-10-19T20:18:03;97994.84;;;13.88;100.00
12360;BME280;6244;51.460;7.090;2023-10-19T20:23:00;97967.69;;;13.95;100.00
12360;BME280;6244;51.460;7.090;2023-10-19T20:27:58;97976.41;;;13.88;100.00
12360;BME280;6244;51.460;7.090;2023-10-19T20:32:55;97975.75;;;13.86;100.00
12360;BME280;6244;51.460;7.090;2023-10-19T20:37:54;97964.72;;;13.82;100.00
12360;BME280;6244;51.460;7.090;2023-10-19T20:42:51;97951.69;;;13.89;100.00
12360;BME280;6244;51.460;7.090;2023-10-19T20:47:50;97941.66;;;13.84;100.00
12360;BME280;6244;51.460;7.090;2023-10-19T20:52:49;97930.59;;;13.89;100.00
12360;BME280;6244;51.460;7.090;2023-10-19T20:57:47;97920.06;;;13.97;100.00
12360;BME280;6244;51.460;7.090;2023-10-19T21:02:44;97918.72;;;14.01;100.00
12360;BME280;6244;51.460;7.090;2023-10-19T21:07:41;97889.59;;;14.02;100.00
12360;BME280;6244;51.460;7.090;2023-10-19T21:12:39;97874.41;;;13.96;100.00
12360;BME280;6244;51.460;7.090;2023-10-19T21:17:37;97848.88;;;13.89;99.76
12360;BME280;6244;51.460;7.090;2023-10-19T21:22:34;97858.28;;;13.83;99.67
12360;BME280;6244;51.460;7.090;2023-10-19T21:27:31;97879.03;;;13.86;99.66
12360;BME280;6244;51.460;7.090;2023-10-19T21:32:27;97854.53;;;13.77;99.32
12360;BME280;6244;51.460;7.090;2023-10-19T21:37:25;97854.88;;;13.66;99.28
12360;BME280;6244;51.460;7.090;2023-10-19T21:42:22;97844.81;;;13.62;99.42
12360;BME280;6244;51.460;7.090;2023-10-19T21:47:18;97849.41;;;13.51;99.38
12360;BME280;6244;51.460;7.090;2023-10-19T21:52:15;97846.31;;;13.48;99.40
12360;BME280;6244;51.460;7.090;2023-10-19T21:57:17;97832.81;;;13.43;99.37
12360;BME280;6244;51.460;7.090;2023-10-19T22:02:14;97833.13;;;13.32;99.13
12360;BME280;6244;51.460;7.090;2023-10-19T22:07:12;97834.31;;;13.29;99.12
12360;BME280;6244;51.460;7.090;2023-10-19T22:12:09;97821.13;;;13.29;98.91
12360;BME280;6244;51.460;7.090;2023-10-19T22:17:07;97829.19;;;13.28;99.36
12360;BME280;6244;51.460;7.090;2023-10-19T22:22:04;97827.72;;;13.33;99.31
12360;BME280;6244;51.460;7.090;2023-10-19T22:27:01;97826.38;;;13.37;99.46
12360;BME280;6244;51.460;7.090;2023-10-19T22:31:58;97810.28;;;13.40;99.95
12360;BME280;6244;51.460;7.090;2023-10-19T22:36:56;97786.69;;;13.39;100.00
12360;BME280;6244;51.460;7.090;2023-10-19T22:41:53;97770.91;;;13.39;100.00
12360;BME280;6244;51.460;7.090;2023-10-19T22:46:50;97796.59;;;13.37;100.00
12360;BME280;6244;51.460;7.090;2023-10-19T22:51:47;97790.16;;;13.39;100.00
12360;BME280;6244;51.460;7.090;2023-10-19T22:56:44;97793.66;;;13.40;100.00
12360;BME280;6244;51.460;7.090;2023-10-19T23:01:41;97784.88;;;13.47;100.00
12360;BME280;6244;51.460;7.090;2023-10-19T23:06:37;97779.44;;;13.49;100.00
12360;BME280;6244;51.460;7.090;2023-10-19T23:11:35;97779.63;;;13.47;100.00
12360;BME280;6244;51.460;7.090;2023-10-19T23:16:35;97773.19;;;13.50;100.00
12360;BME280;6244;51.460;7.090;2023-10-19T23:21:33;97776.34;;;13.45;100.00
12360;BME280;6244;51.460;7.090;2023-10-19T23:26:31;97772.72;;;13.46;100.00
12360;BME280;6244;51.460;7.090;2023-10-19T23:31:28;97771.56;;;13.49;99.99
12360;BME280;6244;51.460;7.090;2023-10-19T23:36:27;97772.72;;;13.46;99.77
12360;BME280;6244;51.460;7.090;2023-10-19T23:41:24;97760.53;;;13.45;99.87
12360;BME280;6244;51.460;7.090;2023-10-19T23:46:20;97763.16;;;13.37;99.45
12360;BME280;6244;51.460;7.090;2023-10-19T23:51:17;97738.66;;;13.37;99.98
12360;BME280;6244;51.460;7.090;2023-10-19T23:56:15;97740.13;;;13.39;99.90
